createdAt,value
2023-02-16T00:00:33.248Z,46.87
2023-02-16T00:03:21.911Z,46.40
2023-02-16T00:06:07.549Z,43.20
2023-02-16T00:08:55.330Z,41.40
2023-02-16T00:11:41.784Z,46.50
2023-02-16T00:14:27.541Z,45.03
2023-02-16T00:17:12.537Z,43.27
2023-02-16T00:19:57.875Z,46.50
2023-02-16T00:22:43.446Z,42.13
2023-02-16T00:25:28.539Z,44.37
2023-02-16T00:28:20.511Z,42.87
2023-02-16T00:31:06.524Z,45.10
2023-02-16T00:33:51.613Z,41.97
2023-02-16T00:36:37.000Z,40.87
2023-02-16T00:39:22.864Z,42.00
2023-02-16T00:42:19.070Z,46.47
2023-02-16T00:45:05.021Z,45.77
2023-02-16T00:47:52.172Z,45.17
2023-02-16T00:50:37.615Z,41.80
2023-02-16T00:53:23.012Z,42.63
2023-02-16T00:56:13.153Z,42.57
2023-02-16T00:58:58.646Z,41.73
2023-02-16T01:01:44.542Z,44.47
2023-02-16T01:04:30.169Z,43.77
2023-02-16T01:07:18.698Z,44.83
2023-02-16T01:10:04.180Z,45.07
2023-02-16T01:12:49.535Z,45.57
2023-02-16T01:15:36.323Z,45.73
2023-02-16T01:18:21.837Z,47.17
2023-02-16T01:21:07.414Z,45.53
2023-02-16T01:23:52.604Z,43.90
2023-02-16T01:26:40.536Z,46.53
2023-02-16T01:29:25.742Z,46.73
2023-02-16T01:32:12.876Z,45.57
2023-02-16T01:34:58.230Z,48.60
2023-02-16T01:37:43.842Z,45.40
2023-02-16T01:40:35.255Z,45.43
2023-02-16T01:43:26.937Z,45.97
2023-02-16T01:46:18.333Z,47.73
2023-02-16T01:49:03.459Z,45.77
2023-02-16T01:51:57.811Z,45.33
2023-02-16T01:54:52.102Z,49.97
2023-02-16T01:57:50.464Z,45.87
2023-02-16T02:00:54.121Z,42.50
2023-02-16T02:03:39.288Z,48.47
2023-02-16T02:06:33.459Z,44.57
2023-02-16T02:09:42.433Z,49.73
2023-02-16T02:12:34.877Z,46.13
2023-02-16T02:15:24.580Z,51.87
2023-02-16T02:18:10.014Z,50.97
2023-02-16T02:21:22.762Z,47.80
2023-02-16T02:24:45.542Z,45.57
2023-02-16T02:28:00.187Z,50.23
2023-02-16T02:30:52.852Z,52.23
2023-02-16T02:34:02.477Z,49.50
2023-02-16T02:37:08.967Z,47.60
2023-02-16T02:40:06.540Z,50.33
2023-02-16T02:43:19.440Z,49.77
2023-02-16T02:46:23.619Z,47.37
2023-02-16T02:49:08.915Z,48.50
2023-02-16T02:51:54.513Z,51.37
2023-02-16T02:54:43.642Z,51.03
2023-02-16T02:57:40.585Z,50.83
2023-02-16T03:00:41.106Z,48.50
2023-02-16T03:03:37.516Z,50.17
2023-02-16T03:06:34.836Z,51.30
2023-02-16T03:09:20.966Z,54.60
2023-02-16T03:12:08.411Z,52.57
2023-02-16T03:14:59.666Z,51.20
2023-02-16T03:17:46.476Z,55.07
2023-02-16T03:20:31.843Z,54.13
2023-02-16T03:23:16.925Z,53.47
2023-02-16T03:26:02.546Z,54.57
2023-02-16T03:28:49.292Z,53.57
2023-02-16T03:31:36.595Z,53.80
2023-02-16T03:34:22.824Z,55.70
2023-02-16T03:37:08.035Z,53.40
2023-02-16T03:39:53.234Z,55.97
2023-02-16T03:42:38.348Z,57.70
2023-02-16T03:45:24.336Z,55.37
2023-02-16T03:48:10.083Z,55.93
2023-02-16T03:50:55.207Z,56.60
2023-02-16T03:53:40.050Z,56.00
2023-02-16T03:56:25.478Z,63.63
2023-02-16T03:59:10.536Z,58.47
2023-02-16T04:01:55.395Z,64.37
2023-02-16T04:04:40.951Z,60.10
2023-02-16T04:07:26.418Z,57.03
2023-02-16T04:10:11.357Z,60.10
2023-02-16T04:12:56.994Z,61.10
2023-02-16T04:15:42.149Z,64.17
2023-02-16T04:18:27.208Z,61.03
2023-02-16T04:21:12.583Z,67.93
2023-02-16T04:23:57.887Z,67.40
2023-02-16T04:26:42.835Z,59.10
2023-02-16T04:29:28.091Z,61.57
2023-02-16T04:32:13.663Z,63.27
2023-02-16T04:34:59.045Z,64.47
2023-02-16T04:37:44.331Z,66.87
2023-02-16T04:40:29.640Z,61.40
2023-02-16T04:43:14.655Z,62.73
2023-02-16T04:45:59.876Z,59.87
2023-02-16T04:48:45.589Z,64.57
2023-02-16T04:51:31.048Z,59.67
2023-02-16T04:54:16.810Z,57.50
2023-02-16T04:57:01.977Z,64.00
2023-02-16T04:59:47.233Z,63.80
2023-02-16T05:02:33.257Z,60.60
2023-02-16T05:05:18.471Z,69.53
2023-02-16T05:08:03.937Z,65.20
2023-02-16T05:10:49.131Z,68.53
2023-02-16T05:13:35.266Z,62.40
2023-02-16T05:16:22.961Z,69.87
2023-02-16T05:19:08.181Z,70.70
2023-02-16T05:21:53.382Z,75.27
2023-02-16T05:24:39.068Z,74.47
2023-02-16T05:27:26.532Z,70.00
2023-02-16T05:30:12.511Z,73.93
2023-02-16T05:32:57.810Z,68.20
2023-02-16T05:35:43.240Z,67.57
2023-02-16T05:38:28.689Z,73.40
2023-02-16T05:41:13.996Z,65.20
2023-02-16T05:44:01.034Z,67.60
2023-02-16T05:46:46.340Z,65.77
2023-02-16T05:49:31.597Z,66.60
2023-02-16T05:52:16.912Z,63.53
2023-02-16T05:55:02.417Z,65.30
2023-02-16T05:57:47.951Z,66.07
2023-02-16T06:00:33.316Z,65.10
2023-02-16T06:03:18.882Z,66.37
2023-02-16T06:06:05.138Z,62.90
2023-02-16T06:08:50.137Z,62.43
2023-02-16T06:11:36.351Z,67.00
2023-02-16T06:14:21.556Z,71.03
2023-02-16T06:17:07.188Z,71.23
2023-02-16T06:19:52.294Z,64.00
2023-02-16T06:22:37.239Z,64.60
2023-02-16T06:25:22.085Z,69.87
2023-02-16T06:28:07.426Z,69.90
2023-02-16T06:30:52.663Z,70.37
2023-02-16T06:33:38.128Z,70.50
2023-02-16T06:36:24.163Z,74.27
2023-02-16T06:39:09.623Z,68.10
2023-02-16T06:41:55.142Z,66.67
2023-02-16T06:44:40.424Z,65.63
2023-02-16T06:47:26.054Z,68.13
2023-02-16T06:50:11.631Z,66.23
2023-02-16T06:52:56.858Z,66.53
2023-02-16T06:55:41.993Z,62.77
2023-02-16T06:58:27.306Z,66.57
2023-02-16T07:01:12.526Z,65.60
2023-02-16T07:03:58.964Z,73.37
2023-02-16T07:06:44.263Z,68.40
2023-02-16T07:09:29.125Z,68.10
2023-02-16T07:12:14.310Z,67.80
2023-02-16T07:14:59.798Z,63.77
2023-02-16T07:17:45.229Z,60.37
2023-02-16T07:20:30.617Z,64.47
2023-02-16T07:23:15.755Z,65.37
2023-02-16T07:26:00.785Z,65.57
2023-02-16T07:28:45.993Z,64.00
2023-02-16T07:31:31.447Z,64.97
2023-02-16T07:34:16.912Z,63.03
2023-02-16T07:37:02.129Z,58.70
2023-02-16T07:39:47.624Z,61.83
2023-02-16T07:42:33.426Z,57.83
2023-02-16T07:45:18.683Z,59.53
2023-02-16T07:48:04.381Z,53.87
2023-02-16T07:50:49.467Z,57.10
2023-02-16T07:53:34.657Z,54.37
2023-02-16T07:56:25.062Z,56.00
2023-02-16T07:59:10.106Z,56.70
2023-02-16T08:01:55.679Z,57.40
2023-02-16T08:04:40.704Z,55.27
2023-02-16T08:07:25.762Z,53.97
2023-02-16T08:10:11.168Z,57.60
2023-02-16T08:12:56.166Z,56.43
2023-02-16T08:15:44.996Z,57.10
2023-02-16T08:18:30.895Z,56.47
2023-02-16T08:21:21.603Z,53.97
2023-02-16T08:24:08.195Z,55.20
2023-02-16T08:26:54.162Z,51.77
2023-02-16T08:29:39.624Z,55.37
2023-02-16T08:32:25.167Z,54.63
2023-02-16T08:35:10.627Z,57.13
2023-02-16T08:37:56.007Z,55.80
2023-02-16T08:40:47.954Z,54.10
2023-02-16T08:43:33.389Z,53.53
2023-02-16T08:46:18.710Z,57.07
2023-02-16T08:49:03.930Z,51.10
2023-02-16T08:51:54.902Z,54.40
2023-02-16T08:54:40.282Z,52.60
2023-02-16T08:57:25.660Z,51.73
2023-02-16T09:00:11.307Z,53.53
2023-02-16T09:02:59.007Z,51.73
2023-02-16T09:05:48.448Z,57.73
2023-02-16T09:08:33.412Z,51.57
2023-02-16T09:11:20.530Z,53.93
2023-02-16T09:14:05.772Z,53.43
2023-02-16T09:16:50.995Z,52.17
2023-02-16T09:19:36.345Z,51.60
2023-02-16T09:22:21.324Z,50.17
2023-02-16T09:25:07.232Z,50.77
2023-02-16T09:27:52.647Z,52.10
2023-02-16T09:30:39.580Z,53.90
2023-02-16T09:33:25.255Z,51.43
2023-02-16T09:36:11.749Z,52.67
2023-02-16T09:38:57.435Z,50.00
2023-02-16T09:42:11.207Z,56.37
2023-02-16T09:45:09.128Z,52.27
2023-02-16T09:47:56.334Z,50.33
2023-02-16T09:50:53.845Z,56.30
2023-02-16T09:53:42.679Z,47.23
2023-02-16T09:56:36.255Z,51.90
2023-02-16T09:59:43.314Z,53.77
2023-02-16T10:02:50.167Z,48.73
2023-02-16T10:05:54.385Z,52.77
2023-02-16T10:08:49.181Z,54.07
2023-02-16T10:11:43.759Z,48.07
2023-02-16T10:14:40.255Z,51.80
2023-02-16T10:17:33.083Z,49.40
2023-02-16T10:20:25.458Z,51.47
2023-02-16T10:23:37.109Z,50.23
2023-02-16T10:26:43.350Z,46.77
2023-02-16T10:29:28.508Z,47.70
2023-02-16T10:32:24.762Z,48.13
2023-02-16T10:35:16.449Z,48.17
2023-02-16T10:38:26.593Z,48.90
2023-02-16T10:41:30.723Z,50.30
2023-02-16T10:44:22.356Z,50.80
2023-02-16T10:47:22.861Z,46.47
2023-02-16T10:50:21.800Z,48.93
2023-02-16T10:53:13.373Z,49.50
2023-02-16T10:55:59.119Z,49.33
2023-02-16T10:58:44.459Z,50.23
2023-02-16T11:01:38.751Z,47.17
2023-02-16T11:04:41.453Z,50.03
2023-02-16T11:07:29.322Z,52.47
2023-02-16T11:10:33.542Z,52.63
2023-02-16T11:13:31.532Z,48.90
2023-02-16T11:16:23.460Z,44.93
2023-02-16T11:19:24.438Z,44.40
2023-02-16T11:22:27.017Z,40.87
2023-02-16T11:25:18.230Z,39.63
2023-02-16T11:28:03.710Z,39.03
2023-02-16T11:30:49.146Z,38.03
2023-02-16T11:33:35.296Z,40.47
2023-02-16T11:36:40.374Z,41.47
2023-02-16T11:39:30.168Z,39.50
2023-02-16T11:42:33.030Z,39.03
2023-02-16T11:45:44.275Z,44.90
2023-02-16T11:48:32.737Z,38.27
2023-02-16T11:51:32.038Z,42.83
2023-02-16T11:54:18.034Z,38.97
2023-02-16T11:57:07.534Z,38.50
2023-02-16T11:59:53.119Z,39.17
2023-02-16T12:03:06.119Z,41.20
2023-02-16T12:06:03.721Z,38.97
2023-02-16T12:08:58.324Z,33.63
2023-02-16T12:12:10.924Z,36.30
2023-02-16T12:15:12.246Z,36.83
2023-02-16T12:18:12.740Z,37.77
2023-02-16T12:21:12.648Z,42.63
2023-02-16T12:24:09.878Z,37.60
2023-02-16T12:27:02.676Z,37.55
2023-02-16T12:30:13.062Z,35.13
2023-02-16T12:33:13.505Z,39.07
2023-02-16T12:36:37.712Z,36.73
2023-02-16T12:39:31.264Z,39.20
2023-02-16T12:42:22.210Z,40.78
2023-02-16T12:45:18.735Z,42.57
2023-02-16T12:48:16.509Z,37.57
2023-02-16T12:51:06.311Z,40.40
2023-02-16T12:53:54.695Z,40.55
2023-02-16T12:56:47.563Z,39.22
2023-02-16T12:59:37.099Z,35.43
2023-02-16T13:02:28.585Z,36.20
2023-02-16T13:05:20.690Z,41.27
2023-02-16T13:08:20.025Z,39.97
2023-02-16T13:11:16.322Z,39.73
2023-02-16T13:14:10.875Z,40.17
2023-02-16T13:17:08.921Z,40.43
2023-02-16T13:19:54.060Z,39.17
2023-02-16T13:23:16.816Z,38.37
2023-02-16T13:26:05.767Z,38.43
2023-02-16T13:29:00.064Z,41.03
2023-02-16T13:32:05.182Z,39.83
2023-02-16T13:34:56.584Z,38.03
2023-02-16T13:37:47.603Z,41.13
2023-02-16T13:41:22.671Z,37.77
2023-02-16T13:44:15.929Z,38.97
2023-02-16T13:47:03.146Z,39.00
2023-02-16T13:49:48.683Z,41.37
2023-02-16T13:52:40.614Z,41.87
2023-02-16T13:55:32.917Z,39.53
2023-02-16T13:58:18.370Z,46.43
2023-02-16T14:01:28.100Z,42.20
2023-02-16T14:04:22.074Z,39.57
2023-02-16T14:07:07.388Z,41.27
2023-02-16T14:09:52.696Z,43.45
2023-02-16T14:12:39.799Z,41.67
2023-02-16T14:15:25.004Z,40.90
2023-02-16T14:18:36.883Z,41.30
2023-02-16T14:21:32.635Z,40.70
2023-02-16T14:24:34.864Z,41.08
2023-02-16T14:27:40.939Z,42.30
2023-02-16T14:30:36.812Z,43.47
2023-02-16T14:33:37.344Z,43.50
2023-02-16T14:36:23.363Z,44.97
2023-02-16T14:39:12.778Z,46.57
2023-02-16T14:42:15.692Z,46.13
2023-02-16T14:45:37.314Z,44.20
2023-02-16T14:48:47.492Z,44.60
2023-02-16T14:51:49.027Z,44.50
2023-02-16T14:54:48.694Z,44.10
2023-02-16T14:57:48.847Z,47.83
2023-02-16T15:00:52.848Z,46.37
2023-02-16T15:03:42.865Z,47.50
2023-02-16T15:06:39.613Z,43.70
2023-02-16T15:09:33.010Z,47.23
2023-02-16T15:12:29.754Z,45.93
2023-02-16T15:15:21.199Z,44.80
2023-02-16T15:18:14.644Z,44.97
2023-02-16T15:21:00.791Z,46.17
2023-02-16T15:23:58.084Z,45.93
2023-02-16T15:26:53.946Z,49.93
2023-02-16T15:29:42.415Z,50.87
2023-02-16T15:32:27.922Z,44.37
2023-02-16T15:35:24.818Z,45.53
2023-02-16T15:38:13.117Z,45.67
2023-02-16T15:41:03.058Z,49.63
2023-02-16T15:43:50.984Z,50.60
2023-02-16T15:46:42.035Z,47.07
2023-02-16T15:49:29.281Z,51.23
2023-02-16T15:52:27.406Z,46.00
2023-02-16T15:55:12.961Z,46.00
2023-02-16T15:57:58.994Z,48.77
2023-02-16T16:00:45.385Z,51.20
2023-02-16T16:03:30.407Z,50.40
2023-02-16T16:06:15.855Z,47.53
2023-02-16T16:09:01.819Z,46.77
2023-02-16T16:11:49.832Z,49.03
2023-02-16T16:14:38.527Z,48.20
2023-02-16T16:17:31.268Z,48.53
2023-02-16T16:20:38.358Z,52.07
2023-02-16T16:23:27.271Z,49.47
2023-02-16T16:26:21.956Z,50.37
2023-02-16T16:29:30.327Z,49.20
2023-02-16T16:32:20.125Z,47.60
2023-02-16T16:35:33.354Z,51.30
2023-02-16T16:38:28.726Z,46.33
2023-02-16T16:41:26.929Z,50.17
2023-02-16T16:44:29.179Z,49.87
2023-02-16T16:47:25.448Z,46.53
2023-02-16T16:50:11.176Z,48.70
2023-02-16T16:52:56.778Z,51.97
2023-02-16T16:55:41.867Z,51.33
2023-02-16T16:58:27.261Z,51.20
2023-02-16T17:01:12.906Z,53.37
2023-02-16T17:03:58.714Z,60.27
2023-02-16T17:06:44.087Z,52.55
2023-02-16T17:09:29.595Z,47.73
2023-02-16T17:12:15.176Z,47.77
2023-02-16T17:15:02.150Z,49.10
2023-02-16T17:17:47.238Z,48.67
2023-02-16T17:20:32.967Z,48.53
2023-02-16T17:23:20.560Z,49.23
2023-02-16T17:26:06.955Z,51.33
2023-02-16T17:28:52.204Z,52.73
2023-02-16T17:31:37.690Z,50.87
2023-02-16T17:34:22.950Z,52.57
2023-02-16T17:37:10.383Z,54.00
2023-02-16T17:39:55.315Z,53.63
2023-02-16T17:42:41.908Z,53.93
2023-02-16T17:45:27.286Z,51.80
2023-02-16T17:48:30.594Z,49.47
2023-02-16T17:51:19.326Z,49.90
2023-02-16T17:54:06.585Z,49.00
2023-02-16T17:56:52.261Z,51.30
2023-02-16T17:59:37.473Z,50.43
2023-02-16T18:02:22.983Z,50.83
2023-02-16T18:05:09.281Z,53.90
2023-02-16T18:07:56.096Z,52.73
2023-02-16T18:10:52.607Z,50.10
2023-02-16T18:13:38.676Z,50.00
2023-02-16T18:16:27.186Z,59.50
2023-02-16T18:19:14.509Z,53.73
2023-02-16T18:22:00.752Z,55.63
2023-02-16T18:24:46.239Z,56.23
2023-02-16T18:27:31.802Z,53.37
2023-02-16T18:30:17.839Z,54.43
2023-02-16T18:33:03.028Z,53.23
2023-02-16T18:35:54.254Z,55.23
2023-02-16T18:38:39.143Z,55.83
2023-02-16T18:41:24.599Z,55.57
2023-02-16T18:44:09.962Z,53.63
2023-02-16T18:46:55.778Z,56.33
2023-02-16T18:49:41.040Z,52.20
2023-02-16T18:52:26.403Z,50.33
2023-02-16T18:55:12.937Z,50.77
2023-02-16T18:57:58.669Z,50.37
2023-02-16T19:00:44.083Z,51.10
2023-02-16T19:03:30.408Z,49.10
2023-02-16T19:06:15.857Z,49.53
2023-02-16T19:09:01.094Z,53.20
2023-02-16T19:11:46.620Z,49.23
2023-02-16T19:14:31.805Z,50.27
2023-02-16T19:17:17.521Z,41.10
2023-02-16T19:20:02.641Z,41.47
2023-02-16T19:22:49.128Z,42.17
2023-02-16T19:25:34.076Z,39.27
2023-02-16T19:28:19.375Z,38.80
2023-02-16T19:31:07.582Z,40.30
2023-02-16T19:33:53.260Z,33.50
2023-02-16T19:36:38.739Z,33.37
2023-02-16T19:39:23.857Z,33.03
2023-02-16T19:42:09.284Z,33.20
2023-02-16T19:45:02.502Z,34.10
2023-02-16T19:47:50.228Z,32.83
2023-02-16T19:50:35.745Z,35.10
2023-02-16T19:53:21.115Z,34.87
2023-02-16T19:56:27.939Z,32.90
2023-02-16T19:59:13.391Z,31.70
2023-02-16T20:01:58.755Z,33.73
2023-02-16T20:04:44.704Z,33.37
2023-02-16T20:07:30.135Z,32.10
2023-02-16T20:10:15.688Z,31.90
2023-02-16T20:13:03.542Z,32.17
2023-02-16T20:15:48.563Z,33.40
2023-02-16T20:18:35.032Z,32.83
2023-02-16T20:21:23.116Z,33.20
2023-02-16T20:24:09.541Z,31.27
2023-02-16T20:26:54.730Z,31.97
2023-02-16T20:29:40.619Z,30.83
2023-02-16T20:32:27.193Z,30.90
2023-02-16T20:35:12.455Z,31.37
2023-02-16T20:37:57.805Z,31.67
2023-02-16T20:40:43.714Z,32.33
2023-02-16T20:43:29.132Z,35.07
2023-02-16T20:46:16.075Z,32.00
2023-02-16T20:49:01.782Z,32.07
2023-02-16T20:51:46.964Z,33.57
2023-02-16T20:54:32.280Z,31.70
2023-02-16T20:57:26.451Z,31.63
2023-02-16T21:00:16.231Z,30.07
2023-02-16T21:03:01.306Z,38.27
2023-02-16T21:05:46.544Z,31.00
2023-02-16T21:08:31.474Z,36.37
2023-02-16T21:11:17.566Z,38.80
2023-02-16T21:14:04.263Z,34.47
2023-02-16T21:16:49.753Z,35.57
2023-02-16T21:19:35.227Z,39.03
2023-02-16T21:22:20.183Z,41.37
2023-02-16T21:25:05.564Z,37.87
2023-02-16T21:27:50.391Z,39.07
2023-02-16T21:30:35.852Z,41.00
2023-02-16T21:33:21.719Z,39.53
2023-02-16T21:36:10.278Z,41.27
2023-02-16T21:38:55.880Z,45.57
2023-02-16T21:41:41.178Z,41.53
2023-02-16T21:44:26.555Z,44.93
2023-02-16T21:47:13.814Z,46.93
2023-02-16T21:49:59.601Z,45.57
2023-02-16T21:52:45.047Z,43.80
2023-02-16T21:55:30.762Z,48.53
2023-02-16T21:58:16.584Z,46.70
2023-02-16T22:01:02.003Z,45.63
2023-02-16T22:03:47.445Z,44.70
2023-02-16T22:06:39.381Z,44.17
2023-02-16T22:09:24.945Z,44.83
2023-02-16T22:12:10.377Z,53.37
2023-02-16T22:14:55.598Z,44.27
2023-02-16T22:17:40.953Z,40.23
2023-02-16T22:20:25.927Z,45.03
2023-02-16T22:23:11.205Z,44.07
2023-02-16T22:25:56.559Z,43.37
2023-02-16T22:28:41.947Z,40.23
2023-02-16T22:31:27.673Z,40.40
2023-02-16T22:34:16.215Z,41.47
2023-02-16T22:37:01.633Z,45.23
2023-02-16T22:39:46.601Z,44.70
2023-02-16T22:42:32.077Z,46.00
2023-02-16T22:45:17.183Z,42.63
2023-02-16T22:48:02.607Z,45.10
2023-02-16T22:51:00.082Z,48.40
2023-02-16T22:53:45.976Z,46.97
2023-02-16T22:56:32.646Z,50.97
2023-02-16T22:59:17.679Z,46.73
2023-02-16T23:02:03.059Z,50.87
2023-02-16T23:04:48.316Z,54.30
2023-02-16T23:07:34.599Z,50.97
2023-02-16T23:10:19.899Z,50.37
2023-02-16T23:13:08.418Z,49.23
2023-02-16T23:15:53.937Z,51.27
2023-02-16T23:18:40.029Z,52.97
2023-02-16T23:21:28.726Z,58.67
2023-02-16T23:24:17.231Z,59.57
2023-02-16T23:27:02.933Z,62.00
2023-02-16T23:29:48.816Z,63.97
2023-02-16T23:32:33.755Z,65.47
2023-02-16T23:35:19.683Z,68.50
2023-02-16T23:38:06.253Z,66.27
2023-02-16T23:41:00.133Z,68.23
2023-02-16T23:43:46.135Z,67.13
2023-02-16T23:46:32.002Z,67.90
2023-02-16T23:49:17.879Z,71.87
2023-02-16T23:52:03.304Z,66.07
2023-02-16T23:54:48.256Z,64.37
2023-02-16T23:57:33.904Z,60.17
